GLO2134 SBSP-SBPK
Flight info
| Callsign | GLO2134 |
|---|---|
| Flight time | 1h 35m |
| Altitude | 38000 |
| Route | SEDL1A UBSOD UZ38 VAGAL NELOX UM424 ARSAG |
| Aircraft | B738/M-SDE2E3FGHIRWXY/LB1 |
Departure
| Time | 2026-04-25 18:08 |
|---|---|
| Airport | Congonhas–Deputado Freitas Nobre Airport (SBSP) |
Arrival
| Time | 2026-04-25 19:43 |
|---|---|
| Airport | João Simões Lopes Neto International Airport (SBPK) |
| Time | Latitude | Longitude | Altitude | Speed | Heading |
|---|---|---|---|---|---|
| 2026-04-25 17:10 | -23.62569 | -46.65923 | 2600 ft | 0 kts | 237° |
| 2026-04-25 17:53 | -23.62555 | -46.65904 | 2600 ft | 4 kts | 211° |
| 2026-04-25 17:53 | -23.62532 | -46.65898 | 2600 ft | 4 kts | 161° |
| 2026-04-25 17:53 | -23.62518 | -46.65905 | 2600 ft | 1 kts | 147° |
| 2026-04-25 17:54 | -23.62516 | -46.65906 | 2600 ft | 0 kts | 147° |
| 2026-04-25 17:55 | -23.62516 | -46.65907 | 2600 ft | 0 kts | 147° |
| 2026-04-25 17:56 | -23.62525 | -46.65899 | 2600 ft | 4 kts | 134° |
| 2026-04-25 17:56 | -23.62540 | -46.65854 | 2601 ft | 8 kts | 109° |
| 2026-04-25 17:56 | -23.62589 | -46.65808 | 2601 ft | 11 kts | 147° |
| 2026-04-25 17:57 | -23.62667 | -46.65754 | 2601 ft | 15 kts | 147° |
| 2026-04-25 17:57 | -23.62755 | -46.65694 | 2601 ft | 15 kts | 147° |
| 2026-04-25 17:57 | -23.62844 | -46.65632 | 2602 ft | 15 kts | 147° |
| 2026-04-25 17:57 | -23.62874 | -46.65612 | 2602 ft | 15 kts | 147° |
| 2026-04-25 17:58 | -23.63015 | -46.65522 | 2602 ft | 13 kts | 169° |
| 2026-04-25 17:58 | -23.63097 | -46.65493 | 2601 ft | 13 kts | 148° |
| 2026-04-25 17:58 | -23.63174 | -46.65440 | 2601 ft | 13 kts | 147° |
| 2026-04-25 17:58 | -23.63254 | -46.65385 | 2601 ft | 14 kts | 147° |
| 2026-04-25 17:59 | -23.63337 | -46.65327 | 2601 ft | 13 kts | 147° |
| 2026-04-25 17:59 | -23.63411 | -46.65275 | 2601 ft | 11 kts | 147° |
| 2026-04-25 17:59 | -23.63460 | -46.65241 | 2600 ft | 6 kts | 147° |
| 2026-04-25 17:59 | -23.63471 | -46.65234 | 2600 ft | 0 kts | 147° |
| 2026-04-25 18:06 | -23.63484 | -46.65224 | 2600 ft | 6 kts | 147° |
| 2026-04-25 18:06 | -23.63504 | -46.65175 | 2599 ft | 8 kts | 76° |
| 2026-04-25 18:07 | -23.63462 | -46.65131 | 2598 ft | 8 kts | 33° |
| 2026-04-25 18:07 | -23.63432 | -46.65122 | 2600 ft | 4 kts | 355° |
| 2026-04-25 18:07 | -23.63390 | -46.65145 | 2603 ft | 22 kts | 327° |
| 2026-04-25 18:07 | -23.63022 | -46.65400 | 2609 ft | 102 kts | 327° |
| 2026-04-25 18:08 | -23.62227 | -46.65960 | 2673 ft | 163 kts | 326° |
| 2026-04-25 18:08 | -23.61266 | -46.66645 | 3581 ft | 167 kts | 324° |
| 2026-04-25 18:08 | -23.60274 | -46.67423 | 4210 ft | 186 kts | 310° |
| 2026-04-25 18:08 | -23.59669 | -46.68760 | 4500 ft | 211 kts | 285° |
| 2026-04-25 18:09 | -23.59212 | -46.70350 | 5006 ft | 223 kts | 287° |
| 2026-04-25 18:09 | -23.58720 | -46.71934 | 5603 ft | 231 kts | 288° |
| 2026-04-25 18:09 | -23.58183 | -46.73616 | 5650 ft | 233 kts | 289° |
| 2026-04-25 18:09 | -23.58002 | -46.74175 | 5709 ft | 230 kts | 289° |
| 2026-04-25 18:10 | -23.57309 | -46.76958 | 5985 ft | 239 kts | 267° |
| 2026-04-25 18:10 | -23.57805 | -46.78763 | 6226 ft | 259 kts | 241° |
| 2026-04-25 18:10 | -23.58910 | -46.80300 | 6416 ft | 259 kts | 230° |
| 2026-04-25 18:10 | -23.60169 | -46.81738 | 6697 ft | 264 kts | 229° |
| 2026-04-25 18:11 | -23.61485 | -46.83153 | 6963 ft | 270 kts | 219° |
| 2026-04-25 18:11 | -23.63190 | -46.84122 | 7565 ft | 281 kts | 206° |
| 2026-04-25 18:11 | -23.64966 | -46.84927 | 8501 ft | 280 kts | 205° |
| 2026-04-25 18:11 | -23.66777 | -46.85748 | 9363 ft | 284 kts | 205° |
| 2026-04-25 18:12 | -23.68598 | -46.86584 | 10267 ft | 284 kts | 206° |
| 2026-04-25 18:12 | -23.70468 | -46.87456 | 10632 ft | 305 kts | 206° |
| 2026-04-25 18:12 | -23.72493 | -46.88414 | 10780 ft | 330 kts | 206° |
| 2026-04-25 18:12 | -23.74660 | -46.89445 | 11079 ft | 348 kts | 206° |
| 2026-04-25 18:13 | -23.76897 | -46.90515 | 11678 ft | 354 kts | 206° |
| 2026-04-25 18:13 | -23.79161 | -46.91601 | 12428 ft | 356 kts | 205° |
| 2026-04-25 18:13 | -23.81438 | -46.92696 | 13154 ft | 359 kts | 205° |
| 2026-04-25 18:14 | -23.86056 | -46.94922 | 14407 ft | 366 kts | 205° |
| 2026-04-25 18:14 | -23.88364 | -46.96038 | 14944 ft | 370 kts | 206° |
| 2026-04-25 18:14 | -23.90736 | -46.97186 | 15504 ft | 374 kts | 206° |
| 2026-04-25 18:14 | -23.93126 | -46.98343 | 16066 ft | 378 kts | 206° |
| 2026-04-25 18:15 | -23.95539 | -46.99511 | 16601 ft | 381 kts | 207° |
| 2026-04-25 18:15 | -23.97978 | -47.00693 | 17124 ft | 385 kts | 207° |
| 2026-04-25 18:15 | -24.00437 | -47.01885 | 17626 ft | 389 kts | 207° |
| 2026-04-25 18:15 | -24.02924 | -47.03091 | 18106 ft | 393 kts | 207° |
| 2026-04-25 18:16 | -24.05435 | -47.04309 | 18550 ft | 397 kts | 208° |
| 2026-04-25 18:16 | -24.07967 | -47.05538 | 19009 ft | 398 kts | 208° |
| 2026-04-25 18:16 | -24.13018 | -47.07989 | 19899 ft | 402 kts | 208° |
| 2026-04-25 18:17 | -24.15584 | -47.09236 | 20304 ft | 405 kts | 208° |
| 2026-04-25 18:17 | -24.18160 | -47.10488 | 20734 ft | 406 kts | 208° |
| 2026-04-25 18:17 | -24.20749 | -47.11747 | 21138 ft | 408 kts | 208° |
| 2026-04-25 18:17 | -24.23347 | -47.13010 | 21567 ft | 409 kts | 208° |
| 2026-04-25 18:18 | -24.25954 | -47.14290 | 21966 ft | 411 kts | 210° |
| 2026-04-25 18:18 | -24.28445 | -47.15799 | 22354 ft | 409 kts | 216° |
| 2026-04-25 18:18 | -24.30857 | -47.17466 | 22738 ft | 411 kts | 217° |
| 2026-04-25 18:18 | -24.33228 | -47.19150 | 23084 ft | 413 kts | 217° |
| 2026-04-25 18:19 | -24.35641 | -47.20871 | 23417 ft | 415 kts | 217° |
| 2026-04-25 18:19 | -24.38067 | -47.22592 | 23738 ft | 416 kts | 217° |
| 2026-04-25 18:19 | -24.40504 | -47.24310 | 24085 ft | 417 kts | 217° |
| 2026-04-25 18:19 | -24.42953 | -47.26025 | 24389 ft | 419 kts | 217° |
| 2026-04-25 18:20 | -24.45417 | -47.27747 | 24679 ft | 420 kts | 217° |
| 2026-04-25 18:20 | -24.47890 | -47.29471 | 24980 ft | 422 kts | 217° |
| 2026-04-25 18:20 | -24.50371 | -47.31199 | 25283 ft | 423 kts | 217° |
| 2026-04-25 18:20 | -24.52859 | -47.32932 | 25578 ft | 424 kts | 217° |
| 2026-04-25 18:21 | -24.55323 | -47.34650 | 25857 ft | 426 kts | 217° |
| 2026-04-25 18:21 | -24.57830 | -47.36398 | 26136 ft | 428 kts | 217° |
| 2026-04-25 18:21 | -24.60343 | -47.38151 | 26418 ft | 429 kts | 217° |
| 2026-04-25 18:21 | -24.62866 | -47.39912 | 26704 ft | 430 kts | 217° |
| 2026-04-25 18:22 | -24.65398 | -47.41680 | 26966 ft | 432 kts | 217° |
| 2026-04-25 18:22 | -24.66254 | -47.42279 | 27054 ft | 433 kts | 217° |
| 2026-04-25 18:22 | -24.70489 | -47.45239 | 27480 ft | 435 kts | 217° |
| 2026-04-25 18:22 | -24.73047 | -47.47029 | 27742 ft | 437 kts | 217° |
| 2026-04-25 18:23 | -24.75616 | -47.48827 | 27998 ft | 438 kts | 217° |
| 2026-04-25 18:23 | -24.78156 | -47.50605 | 28242 ft | 440 kts | 217° |
| 2026-04-25 18:23 | -24.80740 | -47.52416 | 28494 ft | 441 kts | 217° |
| 2026-04-25 18:23 | -24.83330 | -47.54231 | 28735 ft | 443 kts | 217° |
| 2026-04-25 18:24 | -24.85935 | -47.56058 | 28973 ft | 444 kts | 217° |
| 2026-04-25 18:24 | -24.88543 | -47.57888 | 29206 ft | 445 kts | 217° |
| 2026-04-25 18:24 | -24.91160 | -47.59725 | 29451 ft | 446 kts | 217° |
| 2026-04-25 18:24 | -24.93776 | -47.61562 | 29805 ft | 445 kts | 217° |
| 2026-04-25 18:25 | -24.96382 | -47.63391 | 30175 ft | 443 kts | 217° |
| 2026-04-25 18:25 | -24.98938 | -47.65187 | 30491 ft | 441 kts | 217° |
| 2026-04-25 18:25 | -25.01524 | -47.67006 | 30761 ft | 441 kts | 217° |
| 2026-04-25 18:25 | -25.04106 | -47.68824 | 31023 ft | 441 kts | 217° |
| 2026-04-25 18:26 | -25.06694 | -47.70647 | 31328 ft | 440 kts | 217° |
| 2026-04-25 18:26 | -25.09270 | -47.72462 | 31644 ft | 439 kts | 218° |
| 2026-04-25 18:26 | -25.11839 | -47.74272 | 31965 ft | 438 kts | 218° |
| 2026-04-25 18:26 | -25.14403 | -47.76080 | 32290 ft | 437 kts | 218° |
| 2026-04-25 18:27 | -25.16925 | -47.77860 | 32629 ft | 435 kts | 218° |
| 2026-04-25 18:27 | -25.19470 | -47.79656 | 32955 ft | 434 kts | 218° |
| 2026-04-25 18:27 | -25.22013 | -47.81453 | 33255 ft | 434 kts | 218° |
| 2026-04-25 18:27 | -25.24550 | -47.83247 | 33564 ft | 433 kts | 218° |
| 2026-04-25 18:28 | -25.27081 | -47.85037 | 33876 ft | 431 kts | 218° |
| 2026-04-25 18:28 | -25.29606 | -47.86823 | 34134 ft | 431 kts | 218° |
| 2026-04-25 18:28 | -25.32129 | -47.88610 | 34385 ft | 430 kts | 218° |
| 2026-04-25 18:29 | -25.37116 | -47.92157 | 34899 ft | 429 kts | 219° |
| 2026-04-25 18:29 | -25.39619 | -47.93940 | 35146 ft | 428 kts | 219° |
| 2026-04-25 18:30 | -25.47099 | -47.99275 | 35974 ft | 424 kts | 219° |
| 2026-04-25 18:30 | -25.49576 | -48.01042 | 36183 ft | 424 kts | 219° |
| 2026-04-25 18:30 | -25.52052 | -48.02811 | 36400 ft | 424 kts | 219° |
| 2026-04-25 18:30 | -25.54526 | -48.04580 | 36644 ft | 423 kts | 219° |
| 2026-04-25 18:31 | -25.56964 | -48.06322 | 36884 ft | 422 kts | 219° |
| 2026-04-25 18:31 | -25.59425 | -48.08082 | 37107 ft | 421 kts | 219° |
| 2026-04-25 18:31 | -25.61888 | -48.09845 | 37311 ft | 421 kts | 219° |
| 2026-04-25 18:31 | -25.64348 | -48.11602 | 37523 ft | 421 kts | 219° |
| 2026-04-25 18:32 | -25.66812 | -48.13352 | 37740 ft | 420 kts | 219° |
| 2026-04-25 18:32 | -25.69275 | -48.15099 | 37883 ft | 421 kts | 219° |
| 2026-04-25 18:32 | -25.74228 | -48.18615 | 37913 ft | 423 kts | 219° |
| 2026-04-25 18:33 | -25.79125 | -48.22092 | 37884 ft | 418 kts | 219° |
| 2026-04-25 18:33 | -25.84001 | -48.25561 | 37901 ft | 414 kts | 220° |
| 2026-04-25 18:34 | -25.88827 | -48.29001 | 37888 ft | 411 kts | 220° |
| 2026-04-25 18:34 | -25.93617 | -48.32420 | 37886 ft | 408 kts | 220° |
| 2026-04-25 18:35 | -25.98389 | -48.35833 | 37901 ft | 414 kts | 220° |
| 2026-04-25 18:35 | -26.03263 | -48.39322 | 37899 ft | 419 kts | 220° |
| 2026-04-25 18:36 | -26.08187 | -48.42845 | 37907 ft | 422 kts | 220° |
| 2026-04-25 18:36 | -26.13126 | -48.46379 | 37892 ft | 420 kts | 220° |
| 2026-04-25 18:37 | -26.17949 | -48.49832 | 37884 ft | 411 kts | 220° |
| 2026-04-25 18:37 | -26.22749 | -48.53282 | 37895 ft | 410 kts | 221° |
| 2026-04-25 18:38 | -26.27546 | -48.56730 | 37896 ft | 410 kts | 221° |
| 2026-04-25 18:38 | -26.32336 | -48.60189 | 37898 ft | 410 kts | 221° |
| 2026-04-25 18:39 | -26.37097 | -48.63637 | 37906 ft | 411 kts | 221° |
| 2026-04-25 18:39 | -26.41901 | -48.67119 | 37900 ft | 413 kts | 221° |
| 2026-04-25 18:40 | -26.46716 | -48.70610 | 37899 ft | 413 kts | 221° |
| 2026-04-25 18:40 | -26.51522 | -48.74122 | 37898 ft | 413 kts | 221° |
| 2026-04-25 18:41 | -26.56328 | -48.77651 | 37887 ft | 413 kts | 221° |
| 2026-04-25 18:41 | -26.61097 | -48.81154 | 37900 ft | 413 kts | 221° |
| 2026-04-25 18:42 | -26.64311 | -48.83515 | 37893 ft | 413 kts | 221° |
| 2026-04-25 18:42 | -26.70719 | -48.88211 | 37899 ft | 414 kts | 221° |
| 2026-04-25 18:43 | -26.75504 | -48.91703 | 37891 ft | 413 kts | 221° |
| 2026-04-25 18:43 | -26.80309 | -48.95213 | 37893 ft | 412 kts | 221° |
| 2026-04-25 18:44 | -26.85099 | -48.98718 | 37899 ft | 410 kts | 221° |
| 2026-04-25 18:44 | -26.89864 | -49.02211 | 37901 ft | 409 kts | 221° |
| 2026-04-25 18:45 | -26.94579 | -49.05671 | 37903 ft | 407 kts | 221° |
| 2026-04-25 18:45 | -26.99315 | -49.09150 | 37902 ft | 407 kts | 222° |
| 2026-04-25 18:46 | -27.04035 | -49.12618 | 37923 ft | 405 kts | 222° |
| 2026-04-25 18:46 | -27.08753 | -49.16094 | 37919 ft | 406 kts | 222° |
| 2026-04-25 18:47 | -27.13479 | -49.19577 | 37915 ft | 407 kts | 222° |
| 2026-04-25 18:47 | -27.18177 | -49.23042 | 37911 ft | 407 kts | 221° |
| 2026-04-25 18:48 | -27.22902 | -49.26530 | 37928 ft | 406 kts | 221° |
| 2026-04-25 18:48 | -27.27620 | -49.30015 | 37982 ft | 406 kts | 222° |
| 2026-04-25 18:49 | -27.32352 | -49.33519 | 37942 ft | 408 kts | 222° |
| 2026-04-25 18:49 | -27.37069 | -49.37012 | 37936 ft | 410 kts | 222° |
| 2026-04-25 18:50 | -27.41833 | -49.40544 | 37931 ft | 409 kts | 222° |
| 2026-04-25 18:50 | -27.46575 | -49.44063 | 37950 ft | 408 kts | 222° |
| 2026-04-25 18:51 | -27.49709 | -49.46391 | 37947 ft | 408 kts | 222° |
| 2026-04-25 18:51 | -27.56006 | -49.51073 | 37946 ft | 407 kts | 222° |
| 2026-04-25 18:52 | -27.60746 | -49.54581 | 37953 ft | 408 kts | 222° |
| 2026-04-25 18:52 | -27.65482 | -49.58083 | 37963 ft | 407 kts | 222° |
| 2026-04-25 18:53 | -27.70205 | -49.61585 | 37963 ft | 406 kts | 222° |
| 2026-04-25 18:53 | -27.74893 | -49.65061 | 37968 ft | 406 kts | 222° |
| 2026-04-25 18:54 | -27.82059 | -49.70183 | 37962 ft | 406 kts | 221° |
| 2026-04-25 18:55 | -27.86839 | -49.73574 | 37971 ft | 406 kts | 221° |
| 2026-04-25 18:55 | -27.91613 | -49.76976 | 37996 ft | 406 kts | 221° |
| 2026-04-25 18:56 | -27.96376 | -49.80380 | 37998 ft | 405 kts | 222° |
| 2026-04-25 18:56 | -28.01097 | -49.83759 | 37993 ft | 403 kts | 222° |
| 2026-04-25 18:57 | -28.05829 | -49.87150 | 37984 ft | 402 kts | 222° |
| 2026-04-25 18:57 | -28.10547 | -49.90535 | 37988 ft | 401 kts | 222° |
| 2026-04-25 18:58 | -28.15252 | -49.93915 | 37996 ft | 400 kts | 222° |
| 2026-04-25 18:58 | -28.22262 | -49.98957 | 38004 ft | 400 kts | 222° |
| 2026-04-25 18:59 | -28.31649 | -50.05721 | 37993 ft | 399 kts | 222° |
| 2026-04-25 19:00 | -28.38613 | -50.10744 | 38004 ft | 396 kts | 222° |
| 2026-04-25 19:01 | -28.45570 | -50.15775 | 38005 ft | 394 kts | 222° |
| 2026-04-25 19:01 | -28.50199 | -50.19130 | 38026 ft | 395 kts | 223° |
| 2026-04-25 19:02 | -28.57125 | -50.24151 | 37998 ft | 396 kts | 223° |
| 2026-04-25 19:03 | -28.62559 | -50.28096 | 37993 ft | 397 kts | 223° |
| 2026-04-25 19:03 | -28.68755 | -50.32600 | 37994 ft | 397 kts | 223° |
| 2026-04-25 19:04 | -28.75568 | -50.37841 | 37999 ft | 393 kts | 227° |
| 2026-04-25 19:05 | -28.83552 | -50.44732 | 37999 ft | 394 kts | 228° |
| 2026-04-25 19:06 | -28.87930 | -50.48494 | 37989 ft | 394 kts | 227° |
| 2026-04-25 19:06 | -28.94495 | -50.54121 | 37979 ft | 393 kts | 227° |
| 2026-04-25 19:07 | -29.01006 | -50.59708 | 37986 ft | 391 kts | 227° |
| 2026-04-25 19:08 | -29.07518 | -50.65308 | 37996 ft | 390 kts | 228° |
| 2026-04-25 19:09 | -29.14248 | -50.70612 | 37993 ft | 405 kts | 218° |
| 2026-04-25 19:09 | -29.15947 | -50.71518 | 37993 ft | 407 kts | 217° |
| 2026-04-25 19:10 | -29.24464 | -50.75999 | 37977 ft | 404 kts | 218° |
| 2026-04-25 19:10 | -29.29553 | -50.78707 | 37983 ft | 403 kts | 218° |
| 2026-04-25 19:11 | -29.34627 | -50.81423 | 37971 ft | 402 kts | 218° |
| 2026-04-25 19:11 | -29.39649 | -50.84116 | 37967 ft | 401 kts | 218° |
| 2026-04-25 19:12 | -29.44694 | -50.86825 | 37982 ft | 400 kts | 218° |
| 2026-04-25 19:12 | -29.49739 | -50.89537 | 37973 ft | 400 kts | 218° |
| 2026-04-25 19:13 | -29.54769 | -50.92243 | 37956 ft | 399 kts | 218° |
| 2026-04-25 19:13 | -29.59782 | -50.94941 | 37948 ft | 396 kts | 219° |
| 2026-04-25 19:14 | -29.64715 | -50.97598 | 37962 ft | 393 kts | 219° |
| 2026-04-25 19:14 | -29.69669 | -51.00276 | 37958 ft | 394 kts | 219° |
| 2026-04-25 19:14 | -29.72173 | -51.01637 | 37484 ft | 400 kts | 219° |
| 2026-04-25 19:15 | -29.74692 | -51.02998 | 36922 ft | 398 kts | 219° |
| 2026-04-25 19:15 | -29.77193 | -51.04346 | 36390 ft | 396 kts | 219° |
| 2026-04-25 19:15 | -29.79684 | -51.05692 | 35815 ft | 396 kts | 219° |
| 2026-04-25 19:15 | -29.82145 | -51.07025 | 35198 ft | 397 kts | 219° |
| 2026-04-25 19:16 | -29.84642 | -51.08378 | 34705 ft | 395 kts | 219° |
| 2026-04-25 19:16 | -29.87119 | -51.09718 | 34244 ft | 392 kts | 219° |
| 2026-04-25 19:16 | -29.89580 | -51.11051 | 33791 ft | 390 kts | 219° |
| 2026-04-25 19:16 | -29.92022 | -51.12376 | 33312 ft | 387 kts | 219° |
| 2026-04-25 19:17 | -29.94444 | -51.13691 | 32870 ft | 383 kts | 219° |
| 2026-04-25 19:17 | -29.96846 | -51.14995 | 32441 ft | 379 kts | 219° |
| 2026-04-25 19:17 | -29.99222 | -51.16289 | 32020 ft | 375 kts | 220° |
| 2026-04-25 19:17 | -30.01463 | -51.17662 | 31617 ft | 366 kts | 223° |
| 2026-04-25 19:18 | -30.03660 | -51.19106 | 31215 ft | 362 kts | 224° |
| 2026-04-25 19:18 | -30.05828 | -51.20558 | 30821 ft | 358 kts | 224° |
| 2026-04-25 19:18 | -30.07975 | -51.22000 | 30432 ft | 356 kts | 224° |
| 2026-04-25 19:18 | -30.10110 | -51.23433 | 30025 ft | 354 kts | 224° |
| 2026-04-25 19:19 | -30.12233 | -51.24854 | 29566 ft | 352 kts | 224° |
| 2026-04-25 19:19 | -30.14345 | -51.26264 | 29113 ft | 349 kts | 223° |
| 2026-04-25 19:19 | -30.16440 | -51.27660 | 28692 ft | 346 kts | 223° |
| 2026-04-25 19:19 | -30.17818 | -51.28577 | 28416 ft | 344 kts | 223° |
| 2026-04-25 19:20 | -30.20552 | -51.30398 | 27882 ft | 341 kts | 222° |
| 2026-04-25 19:20 | -30.22600 | -51.31763 | 27481 ft | 339 kts | 222° |
| 2026-04-25 19:20 | -30.24652 | -51.33136 | 27133 ft | 344 kts | 221° |
| 2026-04-25 19:20 | -30.26765 | -51.34558 | 26717 ft | 357 kts | 221° |
| 2026-04-25 19:21 | -30.28929 | -51.36008 | 26279 ft | 359 kts | 220° |
| 2026-04-25 19:21 | -30.33235 | -51.38870 | 25427 ft | 354 kts | 219° |
| 2026-04-25 19:21 | -30.35337 | -51.40269 | 25017 ft | 352 kts | 219° |
| 2026-04-25 19:22 | -30.37450 | -51.41679 | 24610 ft | 350 kts | 218° |
| 2026-04-25 19:22 | -30.39555 | -51.43085 | 24182 ft | 349 kts | 218° |
| 2026-04-25 19:22 | -30.43745 | -51.45891 | 23325 ft | 347 kts | 217° |
| 2026-04-25 19:23 | -30.45828 | -51.47286 | 22873 ft | 345 kts | 217° |
| 2026-04-25 19:23 | -30.49954 | -51.50049 | 22038 ft | 340 kts | 217° |
| 2026-04-25 19:23 | -30.51994 | -51.51416 | 21639 ft | 337 kts | 217° |
| 2026-04-25 19:24 | -30.54016 | -51.52772 | 21277 ft | 335 kts | 217° |
| 2026-04-25 19:24 | -30.56015 | -51.54069 | 20887 ft | 333 kts | 216° |
| 2026-04-25 19:24 | -30.60034 | -51.56672 | 20125 ft | 328 kts | 217° |
| 2026-04-25 19:25 | -30.63952 | -51.59328 | 19366 ft | 325 kts | 217° |
| 2026-04-25 19:25 | -30.65900 | -51.60648 | 18993 ft | 323 kts | 217° |
| 2026-04-25 19:25 | -30.67839 | -51.61958 | 18617 ft | 322 kts | 217° |
| 2026-04-25 19:26 | -30.69775 | -51.63264 | 18218 ft | 322 kts | 217° |
| 2026-04-25 19:26 | -30.71688 | -51.64549 | 17806 ft | 322 kts | 216° |
| 2026-04-25 19:26 | -30.73699 | -51.65701 | 17401 ft | 323 kts | 211° |
| 2026-04-25 19:26 | -30.75747 | -51.66762 | 17019 ft | 321 kts | 210° |
| 2026-04-25 19:27 | -30.77792 | -51.67798 | 16641 ft | 320 kts | 210° |
| 2026-04-25 19:27 | -30.79138 | -51.68478 | 16397 ft | 318 kts | 210° |
| 2026-04-25 19:27 | -30.81843 | -51.69851 | 15922 ft | 316 kts | 210° |
| 2026-04-25 19:27 | -30.83854 | -51.70879 | 15544 ft | 315 kts | 210° |
| 2026-04-25 19:28 | -30.85855 | -51.71905 | 15186 ft | 314 kts | 210° |
| 2026-04-25 19:28 | -30.87822 | -51.72917 | 14830 ft | 313 kts | 210° |
| 2026-04-25 19:28 | -30.89807 | -51.73941 | 14469 ft | 312 kts | 209° |
| 2026-04-25 19:28 | -30.91794 | -51.74968 | 14108 ft | 312 kts | 209° |
| 2026-04-25 19:29 | -30.93774 | -51.75992 | 13723 ft | 312 kts | 209° |
| 2026-04-25 19:29 | -30.95754 | -51.77017 | 13329 ft | 311 kts | 208° |
| 2026-04-25 19:29 | -30.97727 | -51.78038 | 12945 ft | 310 kts | 208° |
| 2026-04-25 19:29 | -30.99690 | -51.79055 | 12572 ft | 308 kts | 208° |
| 2026-04-25 19:30 | -31.01647 | -51.80069 | 12205 ft | 307 kts | 208° |
| 2026-04-25 19:30 | -31.03598 | -51.81081 | 11850 ft | 306 kts | 208° |
| 2026-04-25 19:30 | -31.05510 | -51.82073 | 11497 ft | 304 kts | 208° |
| 2026-04-25 19:30 | -31.07439 | -51.83075 | 11144 ft | 303 kts | 208° |
| 2026-04-25 19:31 | -31.09365 | -51.84075 | 10786 ft | 302 kts | 207° |
| 2026-04-25 19:31 | -31.11284 | -51.85073 | 10458 ft | 301 kts | 207° |
| 2026-04-25 19:31 | -31.13169 | -51.86052 | 10301 ft | 293 kts | 207° |
| 2026-04-25 19:31 | -31.15006 | -51.87006 | 10170 ft | 285 kts | 207° |
| 2026-04-25 19:32 | -31.16793 | -51.87934 | 10046 ft | 277 kts | 207° |
| 2026-04-25 19:32 | -31.18530 | -51.88838 | 9873 ft | 272 kts | 207° |
| 2026-04-25 19:32 | -31.20262 | -51.89740 | 9561 ft | 272 kts | 207° |
| 2026-04-25 19:32 | -31.21402 | -51.90335 | 9360 ft | 271 kts | 207° |
| 2026-04-25 19:33 | -31.23682 | -51.91525 | 8955 ft | 270 kts | 207° |
| 2026-04-25 19:33 | -31.25395 | -51.92419 | 8658 ft | 269 kts | 206° |
| 2026-04-25 19:33 | -31.27100 | -51.93308 | 8351 ft | 268 kts | 206° |
| 2026-04-25 19:33 | -31.28804 | -51.94198 | 8055 ft | 267 kts | 206° |
| 2026-04-25 19:34 | -31.30495 | -51.95081 | 7760 ft | 266 kts | 206° |
| 2026-04-25 19:34 | -31.32185 | -51.95963 | 7466 ft | 265 kts | 206° |
| 2026-04-25 19:34 | -31.33869 | -51.96843 | 7178 ft | 264 kts | 206° |
| 2026-04-25 19:34 | -31.35546 | -51.97720 | 6896 ft | 264 kts | 206° |
| 2026-04-25 19:35 | -31.37196 | -51.98582 | 6617 ft | 263 kts | 206° |
| 2026-04-25 19:35 | -31.38862 | -51.99454 | 6316 ft | 262 kts | 205° |
| 2026-04-25 19:35 | -31.40530 | -52.00327 | 5973 ft | 263 kts | 206° |
| 2026-04-25 19:35 | -31.42198 | -52.01200 | 5614 ft | 262 kts | 206° |
| 2026-04-25 19:36 | -31.43852 | -52.02066 | 5262 ft | 259 kts | 205° |
| 2026-04-25 19:36 | -31.45485 | -52.02921 | 4920 ft | 256 kts | 205° |
| 2026-04-25 19:36 | -31.47102 | -52.03769 | 4569 ft | 253 kts | 205° |
| 2026-04-25 19:36 | -31.48701 | -52.04607 | 4250 ft | 250 kts | 205° |
| 2026-04-25 19:37 | -31.50273 | -52.05432 | 3964 ft | 245 kts | 205° |
| 2026-04-25 19:37 | -31.51800 | -52.06233 | 3698 ft | 242 kts | 205° |
| 2026-04-25 19:37 | -31.53324 | -52.07033 | 3417 ft | 238 kts | 204° |
| 2026-04-25 19:37 | -31.54728 | -52.08011 | 3129 ft | 236 kts | 225° |
| 2026-04-25 19:38 | -31.55745 | -52.09495 | 2878 ft | 232 kts | 230° |
| 2026-04-25 19:38 | -31.56744 | -52.10967 | 2598 ft | 229 kts | 230° |
| 2026-04-25 19:38 | -31.57727 | -52.12399 | 2357 ft | 221 kts | 229° |
| 2026-04-25 19:38 | -31.58670 | -52.13771 | 2081 ft | 210 kts | 228° |
| 2026-04-25 19:39 | -31.59551 | -52.15056 | 1798 ft | 195 kts | 229° |
| 2026-04-25 19:39 | -31.60371 | -52.16248 | 1574 ft | 184 kts | 229° |
| 2026-04-25 19:39 | -31.61150 | -52.17380 | 1441 ft | 173 kts | 229° |
| 2026-04-25 19:39 | -31.61896 | -52.18462 | 1350 ft | 168 kts | 228° |
| 2026-04-25 19:40 | -31.62604 | -52.19490 | 1249 ft | 158 kts | 229° |
| 2026-04-25 19:40 | -31.63270 | -52.20458 | 1140 ft | 149 kts | 226° |
| 2026-04-25 19:40 | -31.63898 | -52.21371 | 1080 ft | 137 kts | 227° |
| 2026-04-25 19:40 | -31.64509 | -52.22257 | 996 ft | 143 kts | 228° |
| 2026-04-25 19:41 | -31.65134 | -52.23163 | 944 ft | 142 kts | 227° |
| 2026-04-25 19:41 | -31.65746 | -52.24050 | 904 ft | 144 kts | 228° |
| 2026-04-25 19:41 | -31.66386 | -52.24983 | 841 ft | 142 kts | 230° |
| 2026-04-25 19:41 | -31.66794 | -52.25579 | 826 ft | 143 kts | 230° |
| 2026-04-25 19:42 | -31.67621 | -52.26787 | 817 ft | 143 kts | 229° |
| 2026-04-25 19:42 | -31.68236 | -52.27689 | 819 ft | 142 kts | 228° |
| 2026-04-25 19:42 | -31.68849 | -52.28597 | 824 ft | 142 kts | 228° |
| 2026-04-25 19:42 | -31.69473 | -52.29499 | 718 ft | 144 kts | 228° |
| 2026-04-25 19:43 | -31.70099 | -52.30418 | 509 ft | 145 kts | 230° |
| 2026-04-25 19:43 | -31.70730 | -52.31346 | 244 ft | 145 kts | 230° |
| 2026-04-25 19:43 | -31.71350 | -52.32250 | 64 ft | 136 kts | 230° |
| 2026-04-25 19:43 | -31.71713 | -52.32776 | 58 ft | 30 kts | 230° |
| 2026-04-25 19:44 | -31.71783 | -52.32881 | 62 ft | 10 kts | 232° |
| 2026-04-25 19:44 | -31.71808 | -52.32952 | 63 ft | 8 kts | 295° |
| 2026-04-25 19:44 | -31.71777 | -52.32985 | 58 ft | 4 kts | 322° |
| 2026-04-25 19:44 | -31.71754 | -52.33007 | 62 ft | 4 kts | 321° |
| 2026-04-25 19:45 | -31.71731 | -52.33028 | 63 ft | 4 kts | 321° |
| 2026-04-25 19:45 | -31.71708 | -52.33049 | 65 ft | 4 kts | 321° |
| 2026-04-25 19:45 | -31.71683 | -52.33063 | 61 ft | 4 kts | 354° |
| 2026-04-25 19:45 | -31.71656 | -52.33058 | 61 ft | 4 kts | 12° |
| 2026-04-25 19:46 | -31.71630 | -52.33052 | 64 ft | 4 kts | 12° |
| 2026-04-25 19:46 | -31.71613 | -52.33043 | 60 ft | 3 kts | 40° |
| 2026-04-25 19:46 | -31.71607 | -52.33036 | 65 ft | 0 kts | 44° |